sensor_id;sensor_type;location;lat;lon;timestamp;temperature;humidity
19803;DHT22;66074;50.764;6.090;2023-02-14T00:01:11;7.30;96.20
19803;DHT22;66074;50.764;6.090;2023-02-14T00:03:37;7.30;96.30
19803;DHT22;66074;50.764;6.090;2023-02-14T00:06:07;7.20;96.20
19803;DHT22;66074;50.764;6.090;2023-02-14T00:08:33;7.20;96.30
19803;DHT22;66074;50.764;6.090;2023-02-14T00:10:59;7.20;96.40
19803;DHT22;66074;50.764;6.090;2023-02-14T00:13:25;7.20;96.40
19803;DHT22;66074;50.764;6.090;2023-02-14T00:15:50;7.20;96.30
19803;DHT22;66074;50.764;6.090;2023-02-14T00:18:16;7.20;96.70
19803;DHT22;66074;50.764;6.090;2023-02-14T00:20:41;7.10;96.30
19803;DHT22;66074;50.764;6.090;2023-02-14T00:23:07;7.10;96.20
19803;DHT22;66074;50.764;6.090;2023-02-14T00:25:33;7.10;96.30
19803;DHT22;66074;50.764;6.090;2023-02-14T00:27:59;7.00;96.30
19803;DHT22;66074;50.764;6.090;2023-02-14T00:30:24;7.10;96.40
19803;DHT22;66074;50.764;6.090;2023-02-14T00:32:50;7.00;96.40
19803;DHT22;66074;50.764;6.090;2023-02-14T00:35:16;7.00;96.50
19803;DHT22;66074;50.764;6.090;2023-02-14T00:37:41;7.00;96.50
19803;DHT22;66074;50.764;6.090;2023-02-14T00:40:07;7.00;96.50
19803;DHT22;66074;50.764;6.090;2023-02-14T00:42:33;7.00;96.50
19803;DHT22;66074;50.764;6.090;2023-02-14T00:44:59;7.00;96.50
19803;DHT22;66074;50.764;6.090;2023-02-14T00:47:25;7.00;96.50
19803;DHT22;66074;50.764;6.090;2023-02-14T00:49:50;7.00;96.60
19803;DHT22;66074;50.764;6.090;2023-02-14T00:52:16;7.00;96.60
19803;DHT22;66074;50.764;6.090;2023-02-14T00:58:16;6.70;96.50
19803;DHT22;66074;50.764;6.090;2023-02-14T01:00:41;6.60;96.50
19803;DHT22;66074;50.764;6.090;2023-02-14T01:03:07;6.60;96.30
19803;DHT22;66074;50.764;6.090;2023-02-14T01:05:32;6.60;96.30
19803;DHT22;66074;50.764;6.090;2023-02-14T01:07:58;6.60;96.30
19803;DHT22;66074;50.764;6.090;2023-02-14T01:10:24;6.60;96.70
19803;DHT22;66074;50.764;6.090;2023-02-14T01:12:49;6.60;96.50
19803;DHT22;66074;50.764;6.090;2023-02-14T01:15:15;6.60;96.50
19803;DHT22;66074;50.764;6.090;2023-02-14T01:17:40;6.70;96.60
19803;DHT22;66074;50.764;6.090;2023-02-14T01:20:06;6.70;96.60
19803;DHT22;66074;50.764;6.090;2023-02-14T01:59:40;6.10;96.90
19803;DHT22;66074;50.764;6.090;2023-02-14T02:37:32;5.90;96.70
19803;DHT22;66074;50.764;6.090;2023-02-14T02:43:16;6.00;96.80
19803;DHT22;66074;50.764;6.090;2023-02-14T02:45:48;6.00;96.80
19803;DHT22;66074;50.764;6.090;2023-02-14T02:48:40;6.00;96.60
19803;DHT22;66074;50.764;6.090;2023-02-14T02:51:11;6.00;96.70
19803;DHT22;66074;50.764;6.090;2023-02-14T02:54:08;6.00;96.70
19803;DHT22;66074;50.764;6.090;2023-02-14T02:56:45;6.00;96.80
19803;DHT22;66074;50.764;6.090;2023-02-14T03:02:15;6.00;96.70
19803;DHT22;66074;50.764;6.090;2023-02-14T03:04:46;6.00;96.70
19803;DHT22;66074;50.764;6.090;2023-02-14T03:07:33;6.00;96.60
19803;DHT22;66074;50.764;6.090;2023-02-14T03:15:53;5.90;96.70
19803;DHT22;66074;50.764;6.090;2023-02-14T03:21:42;5.90;96.60
19803;DHT22;66074;50.764;6.090;2023-02-14T03:27:34;5.90;97.10
19803;DHT22;66074;50.764;6.090;2023-02-14T03:32:42;5.90;96.90
19803;DHT22;66074;50.764;6.090;2023-02-14T03:35:29;5.90;96.70
19803;DHT22;66074;50.764;6.090;2023-02-14T03:38:24;5.90;97.00
19803;DHT22;66074;50.764;6.090;2023-02-14T03:40:57;5.90;97.10
19803;DHT22;66074;50.764;6.090;2023-02-14T03:43:36;5.90;96.90
19803;DHT22;66074;50.764;6.090;2023-02-14T03:46:10;5.90;97.00
19803;DHT22;66074;50.764;6.090;2023-02-14T03:48:39;6.00;97.10
19803;DHT22;66074;50.764;6.090;2023-02-14T03:51:09;5.90;97.00
19803;DHT22;66074;50.764;6.090;2023-02-14T03:53:38;6.00;97.10
19803;DHT22;66074;50.764;6.090;2023-02-14T03:56:13;5.90;97.10
19803;DHT22;66074;50.764;6.090;2023-02-14T03:58:43;6.00;97.20
19803;DHT22;66074;50.764;6.090;2023-02-14T04:01:19;6.00;97.10
19803;DHT22;66074;50.764;6.090;2023-02-14T04:03:46;6.00;97.10
19803;DHT22;66074;50.764;6.090;2023-02-14T04:06:11;5.90;97.00
19803;DHT22;66074;50.764;6.090;2023-02-14T04:08:37;5.90;96.90
19803;DHT22;66074;50.764;6.090;2023-02-14T04:11:04;5.90;96.90
19803;DHT22;66074;50.764;6.090;2023-02-14T04:13:30;5.90;96.80
19803;DHT22;66074;50.764;6.090;2023-02-14T04:15:56;5.90;96.80
19803;DHT22;66074;50.764;6.090;2023-02-14T04:18:21;5.80;96.70
19803;DHT22;66074;50.764;6.090;2023-02-14T04:21:05;5.80;96.70
19803;DHT22;66074;50.764;6.090;2023-02-14T04:23:31;5.80;96.80
19803;DHT22;66074;50.764;6.090;2023-02-14T04:25:56;5.80;96.90
19803;DHT22;66074;50.764;6.090;2023-02-14T04:28:22;5.80;96.80
19803;DHT22;66074;50.764;6.090;2023-02-14T04:30:48;5.80;96.80
19803;DHT22;66074;50.764;6.090;2023-02-14T04:33:13;5.80;96.80
19803;DHT22;66074;50.764;6.090;2023-02-14T04:35:39;5.80;96.80
19803;DHT22;66074;50.764;6.090;2023-02-14T04:38:05;5.80;96.80
19803;DHT22;66074;50.764;6.090;2023-02-14T04:40:30;5.80;96.90
19803;DHT22;66074;50.764;6.090;2023-02-14T04:42:56;5.80;96.90
19803;DHT22;66074;50.764;6.090;2023-02-14T04:45:22;5.70;96.80
19803;DHT22;66074;50.764;6.090;2023-02-14T04:47:48;5.70;96.80
19803;DHT22;66074;50.764;6.090;2023-02-14T04:50:13;5.70;96.80
19803;DHT22;66074;50.764;6.090;2023-02-14T04:52:40;5.70;96.80
19803;DHT22;66074;50.764;6.090;2023-02-14T04:55:06;5.70;96.80
19803;DHT22;66074;50.764;6.090;2023-02-14T04:57:32;5.70;96.80
19803;DHT22;66074;50.764;6.090;2023-02-14T04:59:58;5.70;96.90
19803;DHT22;66074;50.764;6.090;2023-02-14T05:02:23;5.70;96.90
19803;DHT22;66074;50.764;6.090;2023-02-14T05:04:49;5.70;96.90
19803;DHT22;66074;50.764;6.090;2023-02-14T05:07:15;5.70;97.00
19803;DHT22;66074;50.764;6.090;2023-02-14T05:09:40;5.70;97.00
19803;DHT22;66074;50.764;6.090;2023-02-14T05:12:06;5.70;97.00
19803;DHT22;66074;50.764;6.090;2023-02-14T05:14:31;5.80;97.00
19803;DHT22;66074;50.764;6.090;2023-02-14T05:16:57;5.70;96.90
19803;DHT22;66074;50.764;6.090;2023-02-14T05:19:23;5.80;97.00
19803;DHT22;66074;50.764;6.090;2023-02-14T05:21:48;5.80;97.10
19803;DHT22;66074;50.764;6.090;2023-02-14T05:24:15;5.80;97.10
19803;DHT22;66074;50.764;6.090;2023-02-14T05:26:40;5.80;97.10
19803;DHT22;66074;50.764;6.090;2023-02-14T05:29:06;5.80;97.10
19803;DHT22;66074;50.764;6.090;2023-02-14T05:31:32;5.80;97.10
19803;DHT22;66074;50.764;6.090;2023-02-14T05:33:57;5.80;97.10
19803;DHT22;66074;50.764;6.090;2023-02-14T05:36:23;5.80;97.20
19803;DHT22;66074;50.764;6.090;2023-02-14T05:38:49;5.80;97.40
19803;DHT22;66074;50.764;6.090;2023-02-14T05:41:14;5.80;97.20
19803;DHT22;66074;50.764;6.090;2023-02-14T05:43:40;5.80;97.20
19803;DHT22;66074;50.764;6.090;2023-02-14T05:46:05;5.80;97.20
19803;DHT22;66074;50.764;6.090;2023-02-14T05:48:31;5.80;97.20
19803;DHT22;66074;50.764;6.090;2023-02-14T05:51:05;5.80;97.20
19803;DHT22;66074;50.764;6.090;2023-02-14T05:53:31;5.80;97.20
19803;DHT22;66074;50.764;6.090;2023-02-14T05:55:57;5.80;97.20
19803;DHT22;66074;50.764;6.090;2023-02-14T05:58:23;5.80;97.30
19803;DHT22;66074;50.764;6.090;2023-02-14T06:00:49;5.80;97.30
19803;DHT22;66074;50.764;6.090;2023-02-14T06:03:14;5.80;97.40
19803;DHT22;66074;50.764;6.090;2023-02-14T06:05:40;5.80;97.40
19803;DHT22;66074;50.764;6.090;2023-02-14T06:08:06;5.80;97.50
19803;DHT22;66074;50.764;6.090;2023-02-14T06:10:31;5.80;97.30
19803;DHT22;66074;50.764;6.090;2023-02-14T06:12:57;5.80;97.30
19803;DHT22;66074;50.764;6.090;2023-02-14T06:15:22;5.80;97.30
19803;DHT22;66074;50.764;6.090;2023-02-14T06:17:53;5.80;97.20
19803;DHT22;66074;50.764;6.090;2023-02-14T06:20:19;5.80;97.20
19803;DHT22;66074;50.764;6.090;2023-02-14T06:22:45;5.80;97.20
19803;DHT22;66074;50.764;6.090;2023-02-14T06:25:10;5.80;97.10
19803;DHT22;66074;50.764;6.090;2023-02-14T06:27:36;5.80;97.20
19803;DHT22;66074;50.764;6.090;2023-02-14T06:30:01;5.80;97.20
19803;DHT22;66074;50.764;6.090;2023-02-14T06:32:27;5.80;97.30
19803;DHT22;66074;50.764;6.090;2023-02-14T06:34:52;5.80;97.30
19803;DHT22;66074;50.764;6.090;2023-02-14T06:37:18;5.80;97.40
19803;DHT22;66074;50.764;6.090;2023-02-14T06:39:44;5.80;97.40
19803;DHT22;66074;50.764;6.090;2023-02-14T06:42:10;5.80;97.40
19803;DHT22;66074;50.764;6.090;2023-02-14T06:44:35;5.90;97.40
19803;DHT22;66074;50.764;6.090;2023-02-14T06:47:01;5.80;97.40
19803;DHT22;66074;50.764;6.090;2023-02-14T06:49:27;5.80;97.30
19803;DHT22;66074;50.764;6.090;2023-02-14T06:51:53;5.90;97.30
19803;DHT22;66074;50.764;6.090;2023-02-14T06:54:18;5.80;97.30
19803;DHT22;66074;50.764;6.090;2023-02-14T06:56:44;6.00;97.40
19803;DHT22;66074;50.764;6.090;2023-02-14T06:59:09;5.70;97.20
19803;DHT22;66074;50.764;6.090;2023-02-14T07:01:35;5.80;97.40
19803;DHT22;66074;50.764;6.090;2023-02-14T07:04:01;5.80;97.40
19803;DHT22;66074;50.764;6.090;2023-02-14T07:06:26;5.70;97.30
19803;DHT22;66074;50.764;6.090;2023-02-14T07:08:52;5.80;97.30
19803;DHT22;66074;50.764;6.090;2023-02-14T07:11:17;5.70;97.30
19803;DHT22;66074;50.764;6.090;2023-02-14T07:13:43;5.70;97.30
19803;DHT22;66074;50.764;6.090;2023-02-14T07:16:09;5.70;97.30
19803;DHT22;66074;50.764;6.090;2023-02-14T07:18:35;5.80;97.30
19803;DHT22;66074;50.764;6.090;2023-02-14T07:21:00;5.70;97.30
19803;DHT22;66074;50.764;6.090;2023-02-14T07:23:26;5.70;97.30
19803;DHT22;66074;50.764;6.090;2023-02-14T07:25:53;5.70;97.30
19803;DHT22;66074;50.764;6.090;2023-02-14T07:28:19;5.80;97.30
19803;DHT22;66074;50.764;6.090;2023-02-14T07:30:44;5.70;97.30
19803;DHT22;66074;50.764;6.090;2023-02-14T07:33:10;5.70;97.40
19803;DHT22;66074;50.764;6.090;2023-02-14T07:35:36;5.80;97.40
19803;DHT22;66074;50.764;6.090;2023-02-14T07:38:02;5.80;97.40
19803;DHT22;66074;50.764;6.090;2023-02-14T07:40:27;5.80;97.40
19803;DHT22;66074;50.764;6.090;2023-02-14T07:42:55;5.80;97.40
19803;DHT22;66074;50.764;6.090;2023-02-14T07:45:22;5.90;97.50
19803;DHT22;66074;50.764;6.090;2023-02-14T07:47:52;5.90;97.50
19803;DHT22;66074;50.764;6.090;2023-02-14T07:50:20;5.90;97.60
19803;DHT22;66074;50.764;6.090;2023-02-14T07:52:46;5.90;97.60
19803;DHT22;66074;50.764;6.090;2023-02-14T07:55:12;6.00;97.70
19803;DHT22;66074;50.764;6.090;2023-02-14T07:57:37;6.00;97.80
19803;DHT22;66074;50.764;6.090;2023-02-14T08:00:05;6.00;97.70
19803;DHT22;66074;50.764;6.090;2023-02-14T08:02:31;6.10;98.00
19803;DHT22;66074;50.764;6.090;2023-02-14T08:04:56;6.20;98.00
19803;DHT22;66074;50.764;6.090;2023-02-14T08:07:22;6.30;98.10
19803;DHT22;66074;50.764;6.090;2023-02-14T08:09:47;6.20;98.00
19803;DHT22;66074;50.764;6.090;2023-02-14T08:12:13;6.30;98.10
19803;DHT22;66074;50.764;6.090;2023-02-14T08:14:57;6.40;98.10
19803;DHT22;66074;50.764;6.090;2023-02-14T08:17:43;6.40;98.10
19803;DHT22;66074;50.764;6.090;2023-02-14T08:20:09;6.50;98.10
19803;DHT22;66074;50.764;6.090;2023-02-14T08:22:34;6.50;98.00
19803;DHT22;66074;50.764;6.090;2023-02-14T08:25:00;6.50;98.00
19803;DHT22;66074;50.764;6.090;2023-02-14T08:27:25;6.60;98.10
19803;DHT22;66074;50.764;6.090;2023-02-14T08:29:51;6.70;98.10
19803;DHT22;66074;50.764;6.090;2023-02-14T08:32:17;6.70;98.10
19803;DHT22;66074;50.764;6.090;2023-02-14T08:34:45;6.70;98.10
19803;DHT22;66074;50.764;6.090;2023-02-14T08:37:11;6.80;98.10
19803;DHT22;66074;50.764;6.090;2023-02-14T08:39:38;6.90;98.10
19803;DHT22;66074;50.764;6.090;2023-02-14T08:42:04;6.90;98.20
19803;DHT22;66074;50.764;6.090;2023-02-14T08:44:30;7.00;98.20
19803;DHT22;66074;50.764;6.090;2023-02-14T08:46:55;7.10;98.20
19803;DHT22;66074;50.764;6.090;2023-02-14T08:49:21;7.10;98.20
19803;DHT22;66074;50.764;6.090;2023-02-14T08:51:47;7.20;98.20
19803;DHT22;66074;50.764;6.090;2023-02-14T08:54:12;7.30;98.20
19803;DHT22;66074;50.764;6.090;2023-02-14T08:56:38;7.40;98.20
19803;DHT22;66074;50.764;6.090;2023-02-14T08:59:05;7.50;98.20
19803;DHT22;66074;50.764;6.090;2023-02-14T09:01:30;7.60;98.10
19803;DHT22;66074;50.764;6.090;2023-02-14T09:03:56;7.80;98.20
19803;DHT22;66074;50.764;6.090;2023-02-14T09:06:22;7.90;98.10
19803;DHT22;66074;50.764;6.090;2023-02-14T09:08:48;8.00;98.00
19803;DHT22;66074;50.764;6.090;2023-02-14T09:11:17;8.10;98.00
19803;DHT22;66074;50.764;6.090;2023-02-14T09:13:44;8.20;98.10
19803;DHT22;66074;50.764;6.090;2023-02-14T09:16:11;8.40;98.20
19803;DHT22;66074;50.764;6.090;2023-02-14T09:18:38;8.70;98.30
19803;DHT22;66074;50.764;6.090;2023-02-14T09:21:12;8.90;98.20
19803;DHT22;66074;50.764;6.090;2023-02-14T09:23:38;9.10;97.90
19803;DHT22;66074;50.764;6.090;2023-02-14T09:26:05;9.40;97.90
19803;DHT22;66074;50.764;6.090;2023-02-14T09:28:32;9.70;97.90
19803;DHT22;66074;50.764;6.090;2023-02-14T09:31:02;10.00;97.30
19803;DHT22;66074;50.764;6.090;2023-02-14T09:33:32;10.20;96.90
19803;DHT22;66074;50.764;6.090;2023-02-14T09:36:16;10.10;96.70
19803;DHT22;66074;50.764;6.090;2023-02-14T09:39:01;10.10;96.60
19803;DHT22;66074;50.764;6.090;2023-02-14T09:43:59;10.40;96.10
19803;DHT22;66074;50.764;6.090;2023-02-14T09:46:28;10.30;95.90
19803;DHT22;66074;50.764;6.090;2023-02-14T09:48:56;10.30;95.90
19803;DHT22;66074;50.764;6.090;2023-02-14T09:51:26;10.30;95.60
19803;DHT22;66074;50.764;6.090;2023-02-14T09:53:59;10.30;95.40
19803;DHT22;66074;50.764;6.090;2023-02-14T09:56:35;10.30;94.90
19803;DHT22;66074;50.764;6.090;2023-02-14T09:59:20;10.40;94.80
19803;DHT22;66074;50.764;6.090;2023-02-14T10:01:50;10.50;94.60
19803;DHT22;66074;50.764;6.090;2023-02-14T10:04:37;10.50;94.70
19803;DHT22;66074;50.764;6.090;2023-02-14T10:07:37;10.60;94.00
19803;DHT22;66074;50.764;6.090;2023-02-14T10:13:01;10.80;93.10
19803;DHT22;66074;50.764;6.090;2023-02-14T10:15:37;10.80;93.80
19803;DHT22;66074;50.764;6.090;2023-02-14T10:20:40;11.00;94.20
19803;DHT22;66074;50.764;6.090;2023-02-14T10:25:59;11.10;93.00
19803;DHT22;66074;50.764;6.090;2023-02-14T10:28:37;11.10;93.30
19803;DHT22;66074;50.764;6.090;2023-02-14T10:36:46;11.40;92.00
19803;DHT22;66074;50.764;6.090;2023-02-14T10:45:33;11.60;91.60
19803;DHT22;66074;50.764;6.090;2023-02-14T10:51:18;11.70;91.90
19803;DHT22;66074;50.764;6.090;2023-02-14T10:56:59;11.80;90.90
19803;DHT22;66074;50.764;6.090;2023-02-14T10:59:58;11.90;91.90
19803;DHT22;66074;50.764;6.090;2023-02-14T11:02:35;11.90;90.90
19803;DHT22;66074;50.764;6.090;2023-02-14T11:05:03;12.00;92.00
19803;DHT22;66074;50.764;6.090;2023-02-14T11:07:29;12.00;92.50
19803;DHT22;66074;50.764;6.090;2023-02-14T11:09:55;12.10;92.50
19803;DHT22;66074;50.764;6.090;2023-02-14T11:17:41;12.20;90.90
19803;DHT22;66074;50.764;6.090;2023-02-14T11:20:28;12.20;92.20
19803;DHT22;66074;50.764;6.090;2023-02-14T11:22:55;12.20;90.50
19803;DHT22;66074;50.764;6.090;2023-02-14T11:25:22;12.30;91.90
19803;DHT22;66074;50.764;6.090;2023-02-14T11:27:54;12.30;92.10
19803;DHT22;66074;50.764;6.090;2023-02-14T11:30:28;12.30;91.20
19803;DHT22;66074;50.764;6.090;2023-02-14T11:32:54;12.40;91.10
19803;DHT22;66074;50.764;6.090;2023-02-14T11:35:25;12.40;91.20
19803;DHT22;66074;50.764;6.090;2023-02-14T11:37:55;12.40;91.20
19803;DHT22;66074;50.764;6.090;2023-02-14T11:40:34;12.50;91.10
19803;DHT22;66074;50.764;6.090;2023-02-14T11:45:37;12.60;90.30
19803;DHT22;66074;50.764;6.090;2023-02-14T11:48:24;12.60;90.90
19803;DHT22;66074;50.764;6.090;2023-02-14T11:53:28;12.60;90.00
19803;DHT22;66074;50.764;6.090;2023-02-14T11:55:56;12.70;90.60
19803;DHT22;66074;50.764;6.090;2023-02-14T12:00:53;12.70;90.30
19803;DHT22;66074;50.764;6.090;2023-02-14T12:03:19;12.70;90.60
19803;DHT22;66074;50.764;6.090;2023-02-14T12:05:47;12.80;90.30
19803;DHT22;66074;50.764;6.090;2023-02-14T12:08:14;12.90;90.10
19803;DHT22;66074;50.764;6.090;2023-02-14T12:10:40;13.00;90.30
19803;DHT22;66074;50.764;6.090;2023-02-14T12:18:24;13.10;88.70
19803;DHT22;66074;50.764;6.090;2023-02-14T12:21:23;13.10;88.20
19803;DHT22;66074;50.764;6.090;2023-02-14T12:24:19;13.10;89.00
19803;DHT22;66074;50.764;6.090;2023-02-14T12:29:40;13.10;89.70
19803;DHT22;66074;50.764;6.090;2023-02-14T12:32:26;13.10;90.10
19803;DHT22;66074;50.764;6.090;2023-02-14T12:38:29;13.10;89.60
19803;DHT22;66074;50.764;6.090;2023-02-14T12:43:55;13.10;88.90
19803;DHT22;66074;50.764;6.090;2023-02-14T12:52:29;13.20;89.90
19803;DHT22;66074;50.764;6.090;2023-02-14T12:58:30;13.30;86.60
19803;DHT22;66074;50.764;6.090;2023-02-14T13:06:38;13.50;86.80
19803;DHT22;66074;50.764;6.090;2023-02-14T13:17:33;13.90;84.80
19803;DHT22;66074;50.764;6.090;2023-02-14T13:22:33;14.10;86.20
19803;DHT22;66074;50.764;6.090;2023-02-14T13:25:04;14.30;87.00
19803;DHT22;66074;50.764;6.090;2023-02-14T13:27:33;14.30;86.80
19803;DHT22;66074;50.764;6.090;2023-02-14T13:30:22;14.40;86.80
19803;DHT22;66074;50.764;6.090;2023-02-14T13:32:50;14.50;84.60
19803;DHT22;66074;50.764;6.090;2023-02-14T13:35:18;14.60;87.10
19803;DHT22;66074;50.764;6.090;2023-02-14T13:37:55;14.60;88.40
19803;DHT22;66074;50.764;6.090;2023-02-14T13:40:24;14.70;88.20
19803;DHT22;66074;50.764;6.090;2023-02-14T13:42:58;14.70;88.20
19803;DHT22;66074;50.764;6.090;2023-02-14T13:48:26;14.80;88.30
19803;DHT22;66074;50.764;6.090;2023-02-14T13:53:41;15.70;88.10
19803;DHT22;66074;50.764;6.090;2023-02-14T13:58:46;17.20;88.60
19803;DHT22;66074;50.764;6.090;2023-02-14T14:01:37;17.50;87.00
19803;DHT22;66074;50.764;6.090;2023-02-14T14:12:35;18.00;84.90
19803;DHT22;66074;50.764;6.090;2023-02-14T14:17:26;18.30;89.00
19803;DHT22;66074;50.764;6.090;2023-02-14T14:19:52;18.40;88.60
19803;DHT22;66074;50.764;6.090;2023-02-14T14:22:19;19.40;89.10
19803;DHT22;66074;50.764;6.090;2023-02-14T14:25:00;20.70;85.70
19803;DHT22;66074;50.764;6.090;2023-02-14T14:27:33;22.00;79.50
19803;DHT22;66074;50.764;6.090;2023-02-14T14:30:04;23.40;79.60
19803;DHT22;66074;50.764;6.090;2023-02-14T14:32:36;23.80;79.90
19803;DHT22;66074;50.764;6.090;2023-02-14T14:35:03;24.20;77.50
19803;DHT22;66074;50.764;6.090;2023-02-14T14:37:34;22.00;78.80
19803;DHT22;66074;50.764;6.090;2023-02-14T14:40:04;20.10;78.70
19803;DHT22;66074;50.764;6.090;2023-02-14T14:42:38;18.80;80.00
19803;DHT22;66074;50.764;6.090;2023-02-14T14:45:19;17.80;80.10
19803;DHT22;66074;50.764;6.090;2023-02-14T14:47:47;17.20;80.30
19803;DHT22;66074;50.764;6.090;2023-02-14T14:50:21;16.80;82.20
19803;DHT22;66074;50.764;6.090;2023-02-14T14:52:49;16.40;82.00
19803;DHT22;66074;50.764;6.090;2023-02-14T14:55:27;16.00;82.50
19803;DHT22;66074;50.764;6.090;2023-02-14T14:57:59;15.80;82.60
19803;DHT22;66074;50.764;6.090;2023-02-14T15:00:29;15.60;83.90
19803;DHT22;66074;50.764;6.090;2023-02-14T15:03:06;15.40;83.30
19803;DHT22;66074;50.764;6.090;2023-02-14T15:05:44;15.20;83.70
19803;DHT22;66074;50.764;6.090;2023-02-14T15:11:07;14.80;83.80
19803;DHT22;66074;50.764;6.090;2023-02-14T15:13:44;14.60;84.10
19803;DHT22;66074;50.764;6.090;2023-02-14T15:16:28;14.40;84.20
19803;DHT22;66074;50.764;6.090;2023-02-14T15:18:58;14.30;84.40
19803;DHT22;66074;50.764;6.090;2023-02-14T15:21:24;14.20;84.70
19803;DHT22;66074;50.764;6.090;2023-02-14T15:23:51;14.10;84.90
19803;DHT22;66074;50.764;6.090;2023-02-14T15:26:26;14.00;84.90
19803;DHT22;66074;50.764;6.090;2023-02-14T15:28:55;13.90;85.00
19803;DHT22;66074;50.764;6.090;2023-02-14T15:31:23;13.90;85.20
19803;DHT22;66074;50.764;6.090;2023-02-14T15:33:49;13.70;85.20
19803;DHT22;66074;50.764;6.090;2023-02-14T15:36:18;13.70;85.30
19803;DHT22;66074;50.764;6.090;2023-02-14T15:38:45;13.60;85.50
19803;DHT22;66074;50.764;6.090;2023-02-14T15:41:13;13.60;85.60
19803;DHT22;66074;50.764;6.090;2023-02-14T15:43:39;13.60;85.70
19803;DHT22;66074;50.764;6.090;2023-02-14T15:46:18;13.60;85.90
19803;DHT22;66074;50.764;6.090;2023-02-14T15:48:45;13.50;86.10
19803;DHT22;66074;50.764;6.090;2023-02-14T15:51:22;13.50;86.20
19803;DHT22;66074;50.764;6.090;2023-02-14T15:53:58;13.50;86.70
19803;DHT22;66074;50.764;6.090;2023-02-14T15:59:03;13.40;86.30
19803;DHT22;66074;50.764;6.090;2023-02-14T16:01:32;13.40;86.40
19803;DHT22;66074;50.764;6.090;2023-02-14T16:04:00;13.30;86.30
19803;DHT22;66074;50.764;6.090;2023-02-14T16:08:56;13.20;86.40
19803;DHT22;66074;50.764;6.090;2023-02-14T16:13:52;13.10;86.70
19803;DHT22;66074;50.764;6.090;2023-02-14T16:16:18;13.10;86.80
19803;DHT22;66074;50.764;6.090;2023-02-14T16:18:46;13.10;86.80
19803;DHT22;66074;50.764;6.090;2023-02-14T16:21:24;13.10;87.20
19803;DHT22;66074;50.764;6.090;2023-02-14T16:26:33;12.90;87.90
19803;DHT22;66074;50.764;6.090;2023-02-14T16:29:01;12.90;87.60
19803;DHT22;66074;50.764;6.090;2023-02-14T16:31:27;12.80;88.00
19803;DHT22;66074;50.764;6.090;2023-02-14T16:33:52;12.80;87.90
19803;DHT22;66074;50.764;6.090;2023-02-14T16:36:29;12.70;88.10
19803;DHT22;66074;50.764;6.090;2023-02-14T16:38:55;12.70;89.00
19803;DHT22;66074;50.764;6.090;2023-02-14T16:41:23;12.60;88.50
19803;DHT22;66074;50.764;6.090;2023-02-14T16:43:50;12.60;89.10
19803;DHT22;66074;50.764;6.090;2023-02-14T16:46:20;12.60;89.20
19803;DHT22;66074;50.764;6.090;2023-02-14T16:48:46;12.50;89.60
19803;DHT22;66074;50.764;6.090;2023-02-14T16:51:23;12.40;89.40
19803;DHT22;66074;50.764;6.090;2023-02-14T16:53:50;12.40;89.60
19803;DHT22;66074;50.764;6.090;2023-02-14T16:56:20;12.30;89.80
19803;DHT22;66074;50.764;6.090;2023-02-14T16:58:47;12.20;90.10
19803;DHT22;66074;50.764;6.090;2023-02-14T17:01:13;12.20;90.00
19803;DHT22;66074;50.764;6.090;2023-02-14T17:03:38;12.20;90.20
19803;DHT22;66074;50.764;6.090;2023-02-14T17:06:12;12.20;90.20
19803;DHT22;66074;50.764;6.090;2023-02-14T17:08:39;12.20;90.10
19803;DHT22;66074;50.764;6.090;2023-02-14T17:11:06;12.10;90.50
19803;DHT22;66074;50.764;6.090;2023-02-14T17:13:34;12.10;90.30
19803;DHT22;66074;50.764;6.090;2023-02-14T17:16:01;12.00;90.30
19803;DHT22;66074;50.764;6.090;2023-02-14T17:18:29;12.00;90.30
19803;DHT22;66074;50.764;6.090;2023-02-14T17:20:57;11.90;90.40
19803;DHT22;66074;50.764;6.090;2023-02-14T17:23:23;11.90;90.50
19803;DHT22;66074;50.764;6.090;2023-02-14T17:25:49;11.80;90.50
19803;DHT22;66074;50.764;6.090;2023-02-14T17:28:15;11.80;90.50
19803;DHT22;66074;50.764;6.090;2023-02-14T17:30:40;11.80;90.70
19803;DHT22;66074;50.764;6.090;2023-02-14T17:33:07;11.70;90.70
19803;DHT22;66074;50.764;6.090;2023-02-14T17:35:34;11.60;90.70
19803;DHT22;66074;50.764;6.090;2023-02-14T17:38:00;11.60;90.70
19803;DHT22;66074;50.764;6.090;2023-02-14T17:40:29;11.50;90.80
19803;DHT22;66074;50.764;6.090;2023-02-14T17:42:55;11.40;90.80
19803;DHT22;66074;50.764;6.090;2023-02-14T17:45:21;11.40;90.80
19803;DHT22;66074;50.764;6.090;2023-02-14T17:47:47;11.30;90.90
19803;DHT22;66074;50.764;6.090;2023-02-14T17:50:13;11.20;90.80
19803;DHT22;66074;50.764;6.090;2023-02-14T17:52:40;11.20;90.90
19803;DHT22;66074;50.764;6.090;2023-02-14T17:55:07;11.10;90.90
19803;DHT22;66074;50.764;6.090;2023-02-14T17:57:34;11.00;90.90
19803;DHT22;66074;50.764;6.090;2023-02-14T18:00:00;11.00;91.00
19803;DHT22;66074;50.764;6.090;2023-02-14T18:02:26;10.90;91.00
19803;DHT22;66074;50.764;6.090;2023-02-14T18:04:53;10.90;91.00
19803;DHT22;66074;50.764;6.090;2023-02-14T18:07:19;10.80;91.10
19803;DHT22;66074;50.764;6.090;2023-02-14T18:09:45;10.70;91.10
19803;DHT22;66074;50.764;6.090;2023-02-14T18:12:11;10.70;91.20
19803;DHT22;66074;50.764;6.090;2023-02-14T18:14:37;10.70;91.20
19803;DHT22;66074;50.764;6.090;2023-02-14T18:17:03;10.60;91.20
19803;DHT22;66074;50.764;6.090;2023-02-14T18:19:30;10.60;91.30
19803;DHT22;66074;50.764;6.090;2023-02-14T18:21:56;10.50;91.30
19803;DHT22;66074;50.764;6.090;2023-02-14T18:24:21;10.50;91.30
19803;DHT22;66074;50.764;6.090;2023-02-14T18:26:47;10.40;91.40
19803;DHT22;66074;50.764;6.090;2023-02-14T18:29:13;10.40;91.40
19803;DHT22;66074;50.764;6.090;2023-02-14T18:31:41;10.30;91.40
19803;DHT22;66074;50.764;6.090;2023-02-14T18:34:07;10.30;91.60
19803;DHT22;66074;50.764;6.090;2023-02-14T18:36:35;10.20;91.50
19803;DHT22;66074;50.764;6.090;2023-02-14T18:39:02;10.20;91.60
19803;DHT22;66074;50.764;6.090;2023-02-14T18:41:28;10.10;91.60
19803;DHT22;66074;50.764;6.090;2023-02-14T18:43:54;10.00;91.60
19803;DHT22;66074;50.764;6.090;2023-02-14T18:46:21;10.10;91.70
19803;DHT22;66074;50.764;6.090;2023-02-14T18:48:47;10.00;91.70
19803;DHT22;66074;50.764;6.090;2023-02-14T18:51:17;9.90;92.20
19803;DHT22;66074;50.764;6.090;2023-02-14T18:53:43;9.80;92.40
19803;DHT22;66074;50.764;6.090;2023-02-14T18:56:12;9.90;92.30
19803;DHT22;66074;50.764;6.090;2023-02-14T18:58:38;9.80;92.40
19803;DHT22;66074;50.764;6.090;2023-02-14T19:01:10;9.80;92.40
19803;DHT22;66074;50.764;6.090;2023-02-14T19:03:36;9.70;92.60
19803;DHT22;66074;50.764;6.090;2023-02-14T19:06:02;9.70;92.50
19803;DHT22;66074;50.764;6.090;2023-02-14T19:08:32;9.60;92.60
19803;DHT22;66074;50.764;6.090;2023-02-14T19:10:58;9.60;92.80
19803;DHT22;66074;50.764;6.090;2023-02-14T19:13:24;9.60;92.60
19803;DHT22;66074;50.764;6.090;2023-02-14T19:15:54;9.60;92.70
19803;DHT22;66074;50.764;6.090;2023-02-14T19:18:19;9.60;92.70
19803;DHT22;66074;50.764;6.090;2023-02-14T19:20:45;9.50;92.80
19803;DHT22;66074;50.764;6.090;2023-02-14T19:23:11;9.50;92.90